Terminal Aerodrome Forecast
Issued by NWS

Home | Current Version | Previous Version | Text Only | Print | Product List | Glossary On
Versions: 1 2 3 4 5 6 7 8 9 10 11 12
000
FTUS42 TJSJ 280520
TAFJMZ
TAF
TJMZ 280520Z 2806/2906 10004KT P6SM FEW030
     FM281500 29007KT P6SM VCSH FEW030 SCT250
     FM282330 08005KT P6SM FEW030 SCT050 BKN090
      AMD NOT SKED=

USA.gov is the U.S. government's official web portal to all federal, state and local government web resources and services.